sensor_id;sensor_type;location;lat;lon;timestamp;temperature;humidity
59923;DHT22;45778;51.142;3.732;2023-02-02T00:01:25;8.70;99.90
59923;DHT22;45778;51.142;3.732;2023-02-02T00:03:51;8.70;99.90
59923;DHT22;45778;51.142;3.732;2023-02-02T00:06:22;8.70;99.90
59923;DHT22;45778;51.142;3.732;2023-02-02T00:08:48;8.70;99.90
59923;DHT22;45778;51.142;3.732;2023-02-02T00:11:14;8.70;99.90
59923;DHT22;45778;51.142;3.732;2023-02-02T00:13:40;8.80;99.90
59923;DHT22;45778;51.142;3.732;2023-02-02T00:18:50;8.80;99.90
59923;DHT22;45778;51.142;3.732;2023-02-02T00:21:16;8.80;99.90
59923;DHT22;45778;51.142;3.732;2023-02-02T00:23:42;8.80;99.90
59923;DHT22;45778;51.142;3.732;2023-02-02T00:26:08;8.70;99.90
59923;DHT22;45778;51.142;3.732;2023-02-02T00:28:34;8.70;99.90
59923;DHT22;45778;51.142;3.732;2023-02-02T00:30:59;8.80;99.90
59923;DHT22;45778;51.142;3.732;2023-02-02T00:33:25;8.70;99.90
59923;DHT22;45778;51.142;3.732;2023-02-02T00:35:51;8.70;99.90
59923;DHT22;45778;51.142;3.732;2023-02-02T00:38:17;8.70;99.90
59923;DHT22;45778;51.142;3.732;2023-02-02T00:40:43;8.60;99.90
59923;DHT22;45778;51.142;3.732;2023-02-02T00:43:09;8.60;99.90
59923;DHT22;45778;51.142;3.732;2023-02-02T00:45:38;8.60;99.90
59923;DHT22;45778;51.142;3.732;2023-02-02T00:48:04;8.50;99.90
59923;DHT22;45778;51.142;3.732;2023-02-02T00:50:30;8.50;99.90
59923;DHT22;45778;51.142;3.732;2023-02-02T00:52:56;8.50;99.90
59923;DHT22;45778;51.142;3.732;2023-02-02T00:55:24;8.60;99.90
59923;DHT22;45778;51.142;3.732;2023-02-02T00:57:51;8.50;99.90
59923;DHT22;45778;51.142;3.732;2023-02-02T01:00:19;8.60;99.90
59923;DHT22;45778;51.142;3.732;2023-02-02T01:02:51;8.50;99.90
59923;DHT22;45778;51.142;3.732;2023-02-02T01:05:18;8.50;99.90
59923;DHT22;45778;51.142;3.732;2023-02-02T01:07:44;8.50;99.90
59923;DHT22;45778;51.142;3.732;2023-02-02T01:10:14;8.50;99.90
59923;DHT22;45778;51.142;3.732;2023-02-02T01:12:41;8.50;99.90
59923;DHT22;45778;51.142;3.732;2023-02-02T01:15:08;8.60;99.90
59923;DHT22;45778;51.142;3.732;2023-02-02T01:17:34;8.60;99.90
59923;DHT22;45778;51.142;3.732;2023-02-02T01:20:00;8.60;99.90
59923;DHT22;45778;51.142;3.732;2023-02-02T01:22:25;8.60;99.90
59923;DHT22;45778;51.142;3.732;2023-02-02T01:24:51;8.60;99.90
59923;DHT22;45778;51.142;3.732;2023-02-02T01:27:17;8.50;99.90
59923;DHT22;45778;51.142;3.732;2023-02-02T01:29:43;8.50;99.90
59923;DHT22;45778;51.142;3.732;2023-02-02T01:32:08;8.50;99.90
59923;DHT22;45778;51.142;3.732;2023-02-02T01:34:35;8.50;99.90
59923;DHT22;45778;51.142;3.732;2023-02-02T01:37:00;8.50;99.90
59923;DHT22;45778;51.142;3.732;2023-02-02T01:39:26;8.40;99.90
59923;DHT22;45778;51.142;3.732;2023-02-02T01:41:52;8.50;99.90
59923;DHT22;45778;51.142;3.732;2023-02-02T01:44:59;8.50;99.90
59923;DHT22;45778;51.142;3.732;2023-02-02T01:47:30;8.50;99.90
59923;DHT22;45778;51.142;3.732;2023-02-02T01:49:56;8.50;99.90
59923;DHT22;45778;51.142;3.732;2023-02-02T01:52:25;8.50;99.90
59923;DHT22;45778;51.142;3.732;2023-02-02T01:54:55;8.40;99.90
59923;DHT22;45778;51.142;3.732;2023-02-02T01:57:36;8.40;99.90
59923;DHT22;45778;51.142;3.732;2023-02-02T02:00:06;8.40;99.90
59923;DHT22;45778;51.142;3.732;2023-02-02T02:02:32;8.50;99.90
59923;DHT22;45778;51.142;3.732;2023-02-02T02:05:00;8.50;99.90
59923;DHT22;45778;51.142;3.732;2023-02-02T02:07:27;8.60;99.90
59923;DHT22;45778;51.142;3.732;2023-02-02T02:09:53;8.50;99.90
59923;DHT22;45778;51.142;3.732;2023-02-02T02:12:19;8.50;99.90
59923;DHT22;45778;51.142;3.732;2023-02-02T02:14:48;8.40;99.90
59923;DHT22;45778;51.142;3.732;2023-02-02T02:18:22;8.40;99.90
59923;DHT22;45778;51.142;3.732;2023-02-02T02:38:35;8.50;99.90
59923;DHT22;45778;51.142;3.732;2023-02-02T02:41:09;8.60;99.90
59923;DHT22;45778;51.142;3.732;2023-02-02T02:43:41;8.60;99.90
59923;DHT22;45778;51.142;3.732;2023-02-02T02:46:08;8.50;99.90
59923;DHT22;45778;51.142;3.732;2023-02-02T02:48:34;8.50;99.90
59923;DHT22;45778;51.142;3.732;2023-02-02T02:54:22;8.40;99.90
59923;DHT22;45778;51.142;3.732;2023-02-02T02:56:57;8.50;99.90
59923;DHT22;45778;51.142;3.732;2023-02-02T02:59:51;8.50;99.90
59923;DHT22;45778;51.142;3.732;2023-02-02T03:08:26;8.40;99.90
59923;DHT22;45778;51.142;3.732;2023-02-02T03:10:55;8.40;99.90
59923;DHT22;45778;51.142;3.732;2023-02-02T03:13:22;8.40;99.90
59923;DHT22;45778;51.142;3.732;2023-02-02T03:15:48;8.30;99.90
59923;DHT22;45778;51.142;3.732;2023-02-02T03:18:16;8.30;99.90
59923;DHT22;45778;51.142;3.732;2023-02-02T03:20:46;8.40;99.90
59923;DHT22;45778;51.142;3.732;2023-02-02T03:23:12;8.30;99.90
59923;DHT22;45778;51.142;3.732;2023-02-02T03:25:38;8.20;99.90
59923;DHT22;45778;51.142;3.732;2023-02-02T03:28:05;8.10;99.90
59923;DHT22;45778;51.142;3.732;2023-02-02T03:30:31;8.10;99.90
59923;DHT22;45778;51.142;3.732;2023-02-02T03:32:57;8.00;99.90
59923;DHT22;45778;51.142;3.732;2023-02-02T03:35:23;8.00;99.90
59923;DHT22;45778;51.142;3.732;2023-02-02T03:37:51;8.00;99.90
59923;DHT22;45778;51.142;3.732;2023-02-02T03:40:17;8.00;99.90
59923;DHT22;45778;51.142;3.732;2023-02-02T03:42:43;8.00;99.90
59923;DHT22;45778;51.142;3.732;2023-02-02T03:45:09;8.00;99.90
59923;DHT22;45778;51.142;3.732;2023-02-02T03:47:35;8.00;99.90
59923;DHT22;45778;51.142;3.732;2023-02-02T03:50:01;8.00;99.90
59923;DHT22;45778;51.142;3.732;2023-02-02T03:52:27;8.00;99.90
59923;DHT22;45778;51.142;3.732;2023-02-02T03:54:52;8.10;99.90
59923;DHT22;45778;51.142;3.732;2023-02-02T03:57:18;8.00;99.90
59923;DHT22;45778;51.142;3.732;2023-02-02T03:59:44;8.10;99.90
59923;DHT22;45778;51.142;3.732;2023-02-02T04:02:09;8.10;99.90
59923;DHT22;45778;51.142;3.732;2023-02-02T04:04:35;8.10;99.90
59923;DHT22;45778;51.142;3.732;2023-02-02T04:07:01;8.10;99.90
59923;DHT22;45778;51.142;3.732;2023-02-02T04:09:27;8.10;99.90
59923;DHT22;45778;51.142;3.732;2023-02-02T04:11:53;8.00;99.90
59923;DHT22;45778;51.142;3.732;2023-02-02T04:14:19;8.00;99.90
59923;DHT22;45778;51.142;3.732;2023-02-02T04:16:45;7.90;99.90
59923;DHT22;45778;51.142;3.732;2023-02-02T04:19:10;7.90;99.90
59923;DHT22;45778;51.142;3.732;2023-02-02T04:21:39;7.80;99.90
59923;DHT22;45778;51.142;3.732;2023-02-02T04:24:09;7.80;99.90
59923;DHT22;45778;51.142;3.732;2023-02-02T04:26:34;7.80;99.90
59923;DHT22;45778;51.142;3.732;2023-02-02T04:29:00;7.70;99.90
59923;DHT22;45778;51.142;3.732;2023-02-02T04:31:26;7.70;99.90
59923;DHT22;45778;51.142;3.732;2023-02-02T04:33:57;7.70;99.90
59923;DHT22;45778;51.142;3.732;2023-02-02T04:36:23;7.60;99.90
59923;DHT22;45778;51.142;3.732;2023-02-02T04:38:50;7.70;99.90
59923;DHT22;45778;51.142;3.732;2023-02-02T04:41:16;7.70;99.90
59923;DHT22;45778;51.142;3.732;2023-02-02T04:43:43;7.70;99.90
59923;DHT22;45778;51.142;3.732;2023-02-02T04:46:09;7.70;99.90
59923;DHT22;45778;51.142;3.732;2023-02-02T04:48:35;7.70;99.90
59923;DHT22;45778;51.142;3.732;2023-02-02T04:51:04;7.70;99.90
59923;DHT22;45778;51.142;3.732;2023-02-02T04:53:31;7.70;99.90
59923;DHT22;45778;51.142;3.732;2023-02-02T04:55:57;7.80;99.90
59923;DHT22;45778;51.142;3.732;2023-02-02T04:58:28;7.80;99.90
59923;DHT22;45778;51.142;3.732;2023-02-02T05:00:54;7.80;99.90
59923;DHT22;45778;51.142;3.732;2023-02-02T05:03:20;7.90;99.90
59923;DHT22;45778;51.142;3.732;2023-02-02T05:05:45;7.90;99.90
59923;DHT22;45778;51.142;3.732;2023-02-02T05:08:11;7.80;99.90
59923;DHT22;45778;51.142;3.732;2023-02-02T05:10:41;7.90;99.90
59923;DHT22;45778;51.142;3.732;2023-02-02T05:13:08;7.90;99.90
59923;DHT22;45778;51.142;3.732;2023-02-02T05:15:33;7.90;99.90
59923;DHT22;45778;51.142;3.732;2023-02-02T05:17:59;8.00;99.90
59923;DHT22;45778;51.142;3.732;2023-02-02T05:20:25;8.00;99.90
59923;DHT22;45778;51.142;3.732;2023-02-02T05:22:51;8.00;99.90
59923;DHT22;45778;51.142;3.732;2023-02-02T05:25:17;8.00;99.90
59923;DHT22;45778;51.142;3.732;2023-02-02T05:27:43;8.00;99.90
59923;DHT22;45778;51.142;3.732;2023-02-02T05:30:11;8.10;99.90
59923;DHT22;45778;51.142;3.732;2023-02-02T05:32:37;8.10;99.90
59923;DHT22;45778;51.142;3.732;2023-02-02T05:35:03;8.10;99.90
59923;DHT22;45778;51.142;3.732;2023-02-02T05:37:29;8.00;99.90
59923;DHT22;45778;51.142;3.732;2023-02-02T05:39:55;8.00;99.90
59923;DHT22;45778;51.142;3.732;2023-02-02T05:42:21;8.10;99.90
59923;DHT22;45778;51.142;3.732;2023-02-02T05:44:46;8.10;99.90
59923;DHT22;45778;51.142;3.732;2023-02-02T05:47:12;8.10;99.90
59923;DHT22;45778;51.142;3.732;2023-02-02T05:49:38;8.10;99.90
59923;DHT22;45778;51.142;3.732;2023-02-02T05:52:04;8.10;99.90
59923;DHT22;45778;51.142;3.732;2023-02-02T05:54:30;8.10;99.90
59923;DHT22;45778;51.142;3.732;2023-02-02T05:56:55;8.10;99.90
59923;DHT22;45778;51.142;3.732;2023-02-02T05:59:22;8.10;99.90
59923;DHT22;45778;51.142;3.732;2023-02-02T06:01:48;8.10;99.90
59923;DHT22;45778;51.142;3.732;2023-02-02T06:04:15;8.10;99.90
59923;DHT22;45778;51.142;3.732;2023-02-02T06:06:41;8.20;99.90
59923;DHT22;45778;51.142;3.732;2023-02-02T06:09:07;8.20;99.90
59923;DHT22;45778;51.142;3.732;2023-02-02T06:11:33;8.20;99.90
59923;DHT22;45778;51.142;3.732;2023-02-02T06:13:59;8.10;99.90
59923;DHT22;45778;51.142;3.732;2023-02-02T06:16:25;8.10;99.90
59923;DHT22;45778;51.142;3.732;2023-02-02T06:18:51;8.10;99.90
59923;DHT22;45778;51.142;3.732;2023-02-02T06:21:17;8.10;99.90
59923;DHT22;45778;51.142;3.732;2023-02-02T06:23:44;8.10;99.90
59923;DHT22;45778;51.142;3.732;2023-02-02T06:26:13;8.10;99.90
59923;DHT22;45778;51.142;3.732;2023-02-02T06:28:39;8.10;99.90
59923;DHT22;45778;51.142;3.732;2023-02-02T06:31:10;8.10;99.90
59923;DHT22;45778;51.142;3.732;2023-02-02T06:33:36;8.10;99.90
59923;DHT22;45778;51.142;3.732;2023-02-02T06:36:05;8.10;99.90
59923;DHT22;45778;51.142;3.732;2023-02-02T06:38:31;8.10;99.90
59923;DHT22;45778;51.142;3.732;2023-02-02T06:41:01;8.10;99.90
59923;DHT22;45778;51.142;3.732;2023-02-02T06:43:28;8.20;99.90
59923;DHT22;45778;51.142;3.732;2023-02-02T06:45:55;8.20;99.90
59923;DHT22;45778;51.142;3.732;2023-02-02T06:48:21;8.20;99.90
59923;DHT22;45778;51.142;3.732;2023-02-02T06:50:47;8.20;99.90
59923;DHT22;45778;51.142;3.732;2023-02-02T06:53:12;8.30;99.90
59923;DHT22;45778;51.142;3.732;2023-02-02T06:55:38;8.30;99.90
59923;DHT22;45778;51.142;3.732;2023-02-02T06:58:04;8.20;99.90
59923;DHT22;45778;51.142;3.732;2023-02-02T07:00:30;8.20;99.90
59923;DHT22;45778;51.142;3.732;2023-02-02T07:02:56;8.20;99.90
59923;DHT22;45778;51.142;3.732;2023-02-02T07:05:21;8.10;99.90
59923;DHT22;45778;51.142;3.732;2023-02-02T07:07:49;8.10;99.90
59923;DHT22;45778;51.142;3.732;2023-02-02T07:10:15;8.10;99.90
59923;DHT22;45778;51.142;3.732;2023-02-02T07:12:41;8.20;99.90
59923;DHT22;45778;51.142;3.732;2023-02-02T07:15:07;8.20;99.90
59923;DHT22;45778;51.142;3.732;2023-02-02T07:17:33;8.20;99.90
59923;DHT22;45778;51.142;3.732;2023-02-02T07:19:59;8.10;99.90
59923;DHT22;45778;51.142;3.732;2023-02-02T07:22:24;8.10;99.90
59923;DHT22;45778;51.142;3.732;2023-02-02T07:24:50;8.10;99.90
59923;DHT22;45778;51.142;3.732;2023-02-02T07:27:16;8.10;99.90
59923;DHT22;45778;51.142;3.732;2023-02-02T07:29:41;8.10;99.90
59923;DHT22;45778;51.142;3.732;2023-02-02T07:32:07;8.10;99.90
59923;DHT22;45778;51.142;3.732;2023-02-02T07:34:39;8.10;99.90
59923;DHT22;45778;51.142;3.732;2023-02-02T07:37:07;8.00;99.90
59923;DHT22;45778;51.142;3.732;2023-02-02T07:39:33;8.00;99.90
59923;DHT22;45778;51.142;3.732;2023-02-02T07:41:59;8.00;99.90
59923;DHT22;45778;51.142;3.732;2023-02-02T07:44:26;7.90;99.90
59923;DHT22;45778;51.142;3.732;2023-02-02T07:46:51;7.90;99.90
59923;DHT22;45778;51.142;3.732;2023-02-02T07:49:17;7.90;99.90
59923;DHT22;45778;51.142;3.732;2023-02-02T07:51:44;7.90;99.90
59923;DHT22;45778;51.142;3.732;2023-02-02T07:54:11;7.80;99.90
59923;DHT22;45778;51.142;3.732;2023-02-02T07:56:37;7.90;99.90
59923;DHT22;45778;51.142;3.732;2023-02-02T07:59:04;7.80;99.90
59923;DHT22;45778;51.142;3.732;2023-02-02T08:01:30;7.90;99.90
59923;DHT22;45778;51.142;3.732;2023-02-02T08:03:57;7.90;99.90
59923;DHT22;45778;51.142;3.732;2023-02-02T08:06:35;7.90;99.90
59923;DHT22;45778;51.142;3.732;2023-02-02T08:09:03;7.90;99.90
59923;DHT22;45778;51.142;3.732;2023-02-02T08:11:30;7.90;99.90
59923;DHT22;45778;51.142;3.732;2023-02-02T08:13:57;7.90;99.90
59923;DHT22;45778;51.142;3.732;2023-02-02T08:16:25;7.90;99.90
59923;DHT22;45778;51.142;3.732;2023-02-02T08:18:52;7.90;99.90
59923;DHT22;45778;51.142;3.732;2023-02-02T08:21:18;7.80;99.90
59923;DHT22;45778;51.142;3.732;2023-02-02T08:23:44;7.70;99.90
59923;DHT22;45778;51.142;3.732;2023-02-02T08:28:47;7.60;99.90
59923;DHT22;45778;51.142;3.732;2023-02-02T08:31:21;7.60;99.90
59923;DHT22;45778;51.142;3.732;2023-02-02T08:33:49;7.50;99.90
59923;DHT22;45778;51.142;3.732;2023-02-02T08:36:17;7.50;99.90
59923;DHT22;45778;51.142;3.732;2023-02-02T08:38:44;7.50;99.90
59923;DHT22;45778;51.142;3.732;2023-02-02T08:41:12;7.40;99.90
59923;DHT22;45778;51.142;3.732;2023-02-02T08:43:39;7.50;99.90
59923;DHT22;45778;51.142;3.732;2023-02-02T08:46:06;7.50;99.90
59923;DHT22;45778;51.142;3.732;2023-02-02T08:48:33;7.60;99.90
59923;DHT22;45778;51.142;3.732;2023-02-02T08:50:59;7.60;99.90
59923;DHT22;45778;51.142;3.732;2023-02-02T08:53:26;7.70;99.90
59923;DHT22;45778;51.142;3.732;2023-02-02T08:56:11;7.80;99.90
59923;DHT22;45778;51.142;3.732;2023-02-02T08:58:38;7.90;99.90
59923;DHT22;45778;51.142;3.732;2023-02-02T09:01:10;7.90;99.90
59923;DHT22;45778;51.142;3.732;2023-02-02T09:03:37;7.90;99.90
59923;DHT22;45778;51.142;3.732;2023-02-02T09:06:09;8.00;99.90
59923;DHT22;45778;51.142;3.732;2023-02-02T09:08:36;8.10;99.90
59923;DHT22;45778;51.142;3.732;2023-02-02T09:11:03;8.10;99.90
59923;DHT22;45778;51.142;3.732;2023-02-02T09:13:29;8.10;99.90
59923;DHT22;45778;51.142;3.732;2023-02-02T09:15:58;8.20;99.90
59923;DHT22;45778;51.142;3.732;2023-02-02T09:18:25;8.30;99.90
59923;DHT22;45778;51.142;3.732;2023-02-02T09:20:50;8.40;99.90
59923;DHT22;45778;51.142;3.732;2023-02-02T09:23:16;8.50;99.90
59923;DHT22;45778;51.142;3.732;2023-02-02T09:25:42;8.50;99.90
59923;DHT22;45778;51.142;3.732;2023-02-02T09:28:07;8.50;99.90
59923;DHT22;45778;51.142;3.732;2023-02-02T09:30:33;8.60;99.90
59923;DHT22;45778;51.142;3.732;2023-02-02T09:32:59;8.60;99.90
59923;DHT22;45778;51.142;3.732;2023-02-02T09:35:24;8.70;99.90
59923;DHT22;45778;51.142;3.732;2023-02-02T09:37:50;8.70;99.90
59923;DHT22;45778;51.142;3.732;2023-02-02T09:40:19;8.70;99.90
59923;DHT22;45778;51.142;3.732;2023-02-02T09:48:37;8.90;99.90
59923;DHT22;45778;51.142;3.732;2023-02-02T09:51:12;9.00;99.90
59923;DHT22;45778;51.142;3.732;2023-02-02T09:53:48;9.00;99.90
59923;DHT22;45778;51.142;3.732;2023-02-02T09:56:26;9.00;99.90
59923;DHT22;45778;51.142;3.732;2023-02-02T09:58:56;9.10;99.90
59923;DHT22;45778;51.142;3.732;2023-02-02T10:01:33;9.20;99.90
59923;DHT22;45778;51.142;3.732;2023-02-02T10:06:37;9.30;99.90
59923;DHT22;45778;51.142;3.732;2023-02-02T10:09:30;9.30;99.90
59923;DHT22;45778;51.142;3.732;2023-02-02T10:20:47;9.50;99.90
59923;DHT22;45778;51.142;3.732;2023-02-02T10:23:23;9.40;99.90
59923;DHT22;45778;51.142;3.732;2023-02-02T10:26:02;9.40;99.90
59923;DHT22;45778;51.142;3.732;2023-02-02T10:31:21;9.50;99.90
59923;DHT22;45778;51.142;3.732;2023-02-02T10:34:06;9.70;99.90
59923;DHT22;45778;51.142;3.732;2023-02-02T10:36:56;9.70;99.90
59923;DHT22;45778;51.142;3.732;2023-02-02T10:39:43;9.70;99.90
59923;DHT22;45778;51.142;3.732;2023-02-02T10:45:13;9.90;99.90
59923;DHT22;45778;51.142;3.732;2023-02-02T10:47:39;9.90;99.90
59923;DHT22;45778;51.142;3.732;2023-02-02T10:52:38;10.00;99.90
59923;DHT22;45778;51.142;3.732;2023-02-02T11:00:47;10.20;99.90
59923;DHT22;45778;51.142;3.732;2023-02-02T11:03:16;10.30;99.90
59923;DHT22;45778;51.142;3.732;2023-02-02T11:05:44;10.20;99.90
59923;DHT22;45778;51.142;3.732;2023-02-02T11:11:15;10.20;99.90
59923;DHT22;45778;51.142;3.732;2023-02-02T11:16:43;10.20;99.90
59923;DHT22;45778;51.142;3.732;2023-02-02T11:21:44;10.30;99.90
59923;DHT22;45778;51.142;3.732;2023-02-02T11:27:20;10.30;99.90
59923;DHT22;45778;51.142;3.732;2023-02-02T11:29:54;10.10;99.90
59923;DHT22;45778;51.142;3.732;2023-02-02T11:32:31;10.00;99.90
59923;DHT22;45778;51.142;3.732;2023-02-02T11:37:36;10.30;99.90
59923;DHT22;45778;51.142;3.732;2023-02-02T11:43:04;10.50;99.90
59923;DHT22;45778;51.142;3.732;2023-02-02T11:45:39;10.40;99.90
59923;DHT22;45778;51.142;3.732;2023-02-02T11:48:20;10.40;99.90
59923;DHT22;45778;51.142;3.732;2023-02-02T11:50:49;10.70;99.90
59923;DHT22;45778;51.142;3.732;2023-02-02T11:55:52;11.00;99.90
59923;DHT22;45778;51.142;3.732;2023-02-02T11:58:41;11.00;99.90
59923;DHT22;45778;51.142;3.732;2023-02-02T12:01:21;11.00;99.90
59923;DHT22;45778;51.142;3.732;2023-02-02T12:03:47;10.90;99.90
59923;DHT22;45778;51.142;3.732;2023-02-02T12:08:43;10.90;99.90
59923;DHT22;45778;51.142;3.732;2023-02-02T12:12:02;10.90;99.90
59923;DHT22;45778;51.142;3.732;2023-02-02T12:14:15;10.90;99.90
59923;DHT22;45778;51.142;3.732;2023-02-02T12:16:52;11.00;99.90
59923;DHT22;45778;51.142;3.732;2023-02-02T12:25:08;11.00;99.90
59923;DHT22;45778;51.142;3.732;2023-02-02T12:51:19;10.80;99.90
59923;DHT22;45778;51.142;3.732;2023-02-02T12:53:40;11.00;99.90
59923;DHT22;45778;51.142;3.732;2023-02-02T13:01:58;11.20;99.90
59923;DHT22;45778;51.142;3.732;2023-02-02T13:13:38;11.10;99.90
59923;DHT22;45778;51.142;3.732;2023-02-02T13:16:06;10.90;99.90
59923;DHT22;45778;51.142;3.732;2023-02-02T13:18:41;10.90;99.90
59923;DHT22;45778;51.142;3.732;2023-02-02T13:21:14;10.90;99.90
59923;DHT22;45778;51.142;3.732;2023-02-02T13:24:02;10.80;99.90
59923;DHT22;45778;51.142;3.732;2023-02-02T13:26:38;10.80;99.90
59923;DHT22;45778;51.142;3.732;2023-02-02T13:31:54;10.70;99.90
59923;DHT22;45778;51.142;3.732;2023-02-02T13:37:45;10.40;99.90
59923;DHT22;45778;51.142;3.732;2023-02-02T13:40:38;10.40;99.90
59923;DHT22;45778;51.142;3.732;2023-02-02T13:43:33;10.30;99.90
59923;DHT22;45778;51.142;3.732;2023-02-02T14:05:30;10.30;99.90
59923;DHT22;45778;51.142;3.732;2023-02-02T14:08:06;10.30;99.90
59923;DHT22;45778;51.142;3.732;2023-02-02T14:10:42;10.30;99.90
59923;DHT22;45778;51.142;3.732;2023-02-02T14:15:58;10.40;99.90
59923;DHT22;45778;51.142;3.732;2023-02-02T14:23:56;10.40;99.90
59923;DHT22;45778;51.142;3.732;2023-02-02T14:34:35;10.40;99.90
59923;DHT22;45778;51.142;3.732;2023-02-02T14:45:48;10.30;99.90
59923;DHT22;45778;51.142;3.732;2023-02-02T14:50:51;10.30;99.90
59923;DHT22;45778;51.142;3.732;2023-02-02T14:58:51;10.30;99.90
59923;DHT22;45778;51.142;3.732;2023-02-02T15:01:52;10.40;99.90
59923;DHT22;45778;51.142;3.732;2023-02-02T15:04:28;10.50;99.90
59923;DHT22;45778;51.142;3.732;2023-02-02T15:06:57;10.40;99.90
59923;DHT22;45778;51.142;3.732;2023-02-02T15:09:43;10.50;99.90
59923;DHT22;45778;51.142;3.732;2023-02-02T15:15:20;10.50;99.90
59923;DHT22;45778;51.142;3.732;2023-02-02T15:17:50;10.40;99.90
59923;DHT22;45778;51.142;3.732;2023-02-02T15:23:41;10.40;99.90
59923;DHT22;45778;51.142;3.732;2023-02-02T15:25:50;10.30;99.90
59923;DHT22;45778;51.142;3.732;2023-02-02T15:31:04;10.20;99.90
59923;DHT22;45778;51.142;3.732;2023-02-02T15:33:36;10.20;99.90
59923;DHT22;45778;51.142;3.732;2023-02-02T15:36:10;10.20;99.90
59923;DHT22;45778;51.142;3.732;2023-02-02T15:38:39;10.10;99.90
59923;DHT22;45778;51.142;3.732;2023-02-02T15:41:22;10.10;99.90
59923;DHT22;45778;51.142;3.732;2023-02-02T15:43:48;10.10;99.90
59923;DHT22;45778;51.142;3.732;2023-02-02T15:46:30;10.10;99.90
59923;DHT22;45778;51.142;3.732;2023-02-02T15:49:22;10.00;99.90
59923;DHT22;45778;51.142;3.732;2023-02-02T15:51:54;9.90;99.90
59923;DHT22;45778;51.142;3.732;2023-02-02T15:54:31;9.90;99.90
59923;DHT22;45778;51.142;3.732;2023-02-02T15:57:01;9.90;99.90
59923;DHT22;45778;51.142;3.732;2023-02-02T15:59:36;9.80;99.90
59923;DHT22;45778;51.142;3.732;2023-02-02T16:04:38;9.80;99.90
59923;DHT22;45778;51.142;3.732;2023-02-02T16:07:28;9.80;99.90
59923;DHT22;45778;51.142;3.732;2023-02-02T16:09:54;9.80;99.90
59923;DHT22;45778;51.142;3.732;2023-02-02T16:12:22;9.70;99.90
59923;DHT22;45778;51.142;3.732;2023-02-02T16:14:52;9.70;99.90
59923;DHT22;45778;51.142;3.732;2023-02-02T16:17:20;9.70;99.90
59923;DHT22;45778;51.142;3.732;2023-02-02T16:19:48;9.70;99.90
59923;DHT22;45778;51.142;3.732;2023-02-02T16:22:21;9.60;99.90
59923;DHT22;45778;51.142;3.732;2023-02-02T16:24:55;9.60;99.90
59923;DHT22;45778;51.142;3.732;2023-02-02T16:27:24;9.60;99.90
59923;DHT22;45778;51.142;3.732;2023-02-02T16:29:51;9.60;99.90
59923;DHT22;45778;51.142;3.732;2023-02-02T16:32:27;9.70;99.90
59923;DHT22;45778;51.142;3.732;2023-02-02T16:34:54;9.70;99.90
59923;DHT22;45778;51.142;3.732;2023-02-02T16:37:28;9.70;99.90
59923;DHT22;45778;51.142;3.732;2023-02-02T16:43:27;9.70;99.90
59923;DHT22;45778;51.142;3.732;2023-02-02T16:45:59;9.80;99.90
59923;DHT22;45778;51.142;3.732;2023-02-02T16:56:40;9.70;99.90
59923;DHT22;45778;51.142;3.732;2023-02-02T16:59:25;9.70;99.90
59923;DHT22;45778;51.142;3.732;2023-02-02T17:01:55;9.70;99.90
59923;DHT22;45778;51.142;3.732;2023-02-02T17:06:48;9.50;99.90
59923;DHT22;45778;51.142;3.732;2023-02-02T17:09:31;9.40;99.90
59923;DHT22;45778;51.142;3.732;2023-02-02T17:12:01;9.40;99.90
59923;DHT22;45778;51.142;3.732;2023-02-02T17:14:31;9.30;99.90
59923;DHT22;45778;51.142;3.732;2023-02-02T17:16:57;9.30;99.90
59923;DHT22;45778;51.142;3.732;2023-02-02T17:19:23;9.20;99.90
59923;DHT22;45778;51.142;3.732;2023-02-02T17:21:52;9.10;99.90
59923;DHT22;45778;51.142;3.732;2023-02-02T17:24:18;9.10;99.90
59923;DHT22;45778;51.142;3.732;2023-02-02T17:26:44;9.10;99.90
59923;DHT22;45778;51.142;3.732;2023-02-02T17:29:14;9.00;99.90
59923;DHT22;45778;51.142;3.732;2023-02-02T17:31:42;9.00;99.90
59923;DHT22;45778;51.142;3.732;2023-02-02T17:34:11;8.90;99.90
59923;DHT22;45778;51.142;3.732;2023-02-02T17:36:41;8.90;99.90
59923;DHT22;45778;51.142;3.732;2023-02-02T17:39:07;8.90;99.90
59923;DHT22;45778;51.142;3.732;2023-02-02T17:41:33;8.80;99.90
59923;DHT22;45778;51.142;3.732;2023-02-02T17:43:59;8.80;99.90
59923;DHT22;45778;51.142;3.732;2023-02-02T17:46:25;8.70;99.90
59923;DHT22;45778;51.142;3.732;2023-02-02T17:48:55;8.70;99.90
59923;DHT22;45778;51.142;3.732;2023-02-02T17:51:21;8.60;99.90
59923;DHT22;45778;51.142;3.732;2023-02-02T17:53:47;8.60;99.90
59923;DHT22;45778;51.142;3.732;2023-02-02T17:56:13;8.60;99.90
59923;DHT22;45778;51.142;3.732;2023-02-02T17:58:39;8.60;99.90
59923;DHT22;45778;51.142;3.732;2023-02-02T18:01:05;8.60;99.90
59923;DHT22;45778;51.142;3.732;2023-02-02T18:03:33;8.60;99.90
59923;DHT22;45778;51.142;3.732;2023-02-02T18:06:00;8.60;99.90
59923;DHT22;45778;51.142;3.732;2023-02-02T18:08:30;8.60;99.90
59923;DHT22;45778;51.142;3.732;2023-02-02T18:10:57;8.60;99.90
59923;DHT22;45778;51.142;3.732;2023-02-02T18:13:24;8.70;99.90
59923;DHT22;45778;51.142;3.732;2023-02-02T18:15:51;8.80;99.90
59923;DHT22;45778;51.142;3.732;2023-02-02T18:18:17;8.80;99.90
59923;DHT22;45778;51.142;3.732;2023-02-02T18:20:44;8.80;99.90
59923;DHT22;45778;51.142;3.732;2023-02-02T18:23:11;8.80;99.90
59923;DHT22;45778;51.142;3.732;2023-02-02T18:25:37;8.80;99.90
59923;DHT22;45778;51.142;3.732;2023-02-02T18:28:08;8.90;99.90
59923;DHT22;45778;51.142;3.732;2023-02-02T18:30:37;8.90;99.90
59923;DHT22;45778;51.142;3.732;2023-02-02T18:33:19;8.90;99.90
59923;DHT22;45778;51.142;3.732;2023-02-02T18:36:20;9.00;99.90
59923;DHT22;45778;51.142;3.732;2023-02-02T18:38:47;8.90;99.90
59923;DHT22;45778;51.142;3.732;2023-02-02T18:41:16;8.90;99.90
59923;DHT22;45778;51.142;3.732;2023-02-02T18:43:43;9.00;99.90
59923;DHT22;45778;51.142;3.732;2023-02-02T18:46:11;8.90;99.90
59923;DHT22;45778;51.142;3.732;2023-02-02T18:48:38;8.90;99.90
59923;DHT22;45778;51.142;3.732;2023-02-02T18:51:06;9.00;99.90
59923;DHT22;45778;51.142;3.732;2023-02-02T18:53:32;9.00;99.90
59923;DHT22;45778;51.142;3.732;2023-02-02T18:55:58;9.00;99.90
59923;DHT22;45778;51.142;3.732;2023-02-02T18:58:23;8.90;99.90
59923;DHT22;45778;51.142;3.732;2023-02-02T19:00:55;9.00;99.90
59923;DHT22;45778;51.142;3.732;2023-02-02T19:03:21;9.00;99.90
59923;DHT22;45778;51.142;3.732;2023-02-02T19:05:46;9.10;99.90
59923;DHT22;45778;51.142;3.732;2023-02-02T19:08:31;9.00;99.90
59923;DHT22;45778;51.142;3.732;2023-02-02T19:10:59;9.00;99.90
59923;DHT22;45778;51.142;3.732;2023-02-02T19:13:27;9.00;99.90
59923;DHT22;45778;51.142;3.732;2023-02-02T19:15:53;9.00;99.90
59923;DHT22;45778;51.142;3.732;2023-02-02T19:18:23;9.00;99.90
59923;DHT22;45778;51.142;3.732;2023-02-02T19:20:49;9.00;99.90
59923;DHT22;45778;51.142;3.732;2023-02-02T19:23:24;9.00;99.90
59923;DHT22;45778;51.142;3.732;2023-02-02T19:25:55;9.00;99.90
59923;DHT22;45778;51.142;3.732;2023-02-02T19:28:28;9.00;99.90
59923;DHT22;45778;51.142;3.732;2023-02-02T19:30:59;9.00;99.90